createdAt,value
2023-01-04T00:01:50.095Z,96.70
2023-01-04T00:04:20.541Z,96.70
2023-01-04T00:07:02.722Z,96.70
2023-01-04T00:09:31.208Z,96.70
2023-01-04T00:11:59.841Z,96.60
2023-01-04T00:14:28.076Z,96.60
2023-01-04T00:16:57.037Z,96.60
2023-01-04T00:19:28.596Z,96.60
2023-01-04T00:21:56.873Z,96.60
2023-01-04T00:24:25.183Z,96.70
2023-01-04T00:26:53.696Z,96.70
2023-01-04T00:29:22.047Z,96.70
2023-01-04T00:31:50.172Z,96.70
2023-01-04T00:34:19.217Z,96.80
2023-01-04T00:36:50.713Z,96.80
2023-01-04T00:39:19.713Z,96.80
2023-01-04T00:42:00.067Z,96.80
2023-01-04T00:44:32.710Z,96.80
2023-01-04T00:47:02.706Z,96.80
2023-01-04T00:49:32.107Z,96.70
2023-01-04T00:52:02.190Z,96.70
2023-01-04T00:54:30.879Z,96.80
2023-01-04T00:57:01.382Z,96.80
2023-01-04T00:59:32.181Z,96.70
2023-01-04T01:02:01.354Z,96.70
2023-01-04T01:04:31.712Z,96.70
2023-01-04T01:07:02.195Z,96.70
2023-01-04T01:09:32.050Z,96.70
2023-01-04T01:12:03.177Z,96.70
2023-01-04T01:14:39.406Z,96.70
2023-01-04T01:17:12.533Z,96.70
2023-01-04T01:19:45.412Z,96.70
2023-01-04T01:22:15.440Z,96.60
2023-01-04T01:24:46.579Z,96.70
2023-01-04T01:27:14.998Z,96.70
2023-01-04T01:29:45.039Z,96.80
2023-01-04T01:32:13.934Z,96.80
2023-01-04T01:34:42.574Z,96.80
2023-01-04T01:37:22.254Z,96.80
2023-01-04T01:39:52.333Z,96.80
2023-01-04T01:42:23.680Z,96.80
2023-01-04T01:45:01.001Z,96.80
2023-01-04T01:47:43.066Z,96.80
2023-01-04T01:50:22.002Z,96.80
2023-01-04T01:52:51.911Z,96.80
2023-01-04T01:55:25.677Z,96.80
2023-01-04T01:57:59.063Z,96.80
2023-01-04T02:00:34.220Z,96.80
2023-01-04T02:03:15.088Z,97.10
2023-01-04T02:05:45.449Z,96.80
2023-01-04T02:08:20.346Z,96.80
2023-01-04T02:10:55.313Z,96.80
2023-01-04T02:13:47.406Z,96.90
2023-01-04T02:16:28.328Z,96.80
2023-01-04T02:19:14.695Z,96.90
2023-01-04T02:22:00.446Z,96.90
2023-01-04T02:25:07.876Z,96.90
2023-01-04T02:27:50.302Z,96.90
2023-01-04T02:30:46.462Z,96.80
2023-01-04T02:33:35.439Z,96.90
2023-01-04T02:36:12.998Z,97.20
2023-01-04T02:39:14.114Z,96.90
2023-01-04T02:41:57.881Z,96.90
2023-01-04T02:44:47.604Z,96.90
2023-01-04T02:47:41.661Z,96.90
2023-01-04T02:50:34.240Z,96.90
2023-01-04T02:53:08.179Z,96.90
2023-01-04T02:55:49.038Z,96.90
2023-01-04T02:58:37.772Z,96.90
2023-01-04T03:01:32.637Z,97.00
2023-01-04T03:04:31.862Z,97.00
2023-01-04T03:07:09.959Z,97.00
2023-01-04T03:09:43.194Z,97.00
2023-01-04T03:12:36.216Z,97.00
2023-01-04T03:15:14.425Z,97.00
2023-01-04T03:17:48.328Z,97.00
2023-01-04T03:20:18.682Z,97.00
2023-01-04T03:23:16.466Z,97.00
2023-01-04T03:26:07.215Z,97.00
2023-01-04T03:28:55.923Z,97.00
2023-01-04T03:31:47.393Z,97.00
2023-01-04T03:34:33.676Z,97.00
2023-01-04T03:37:10.292Z,97.00
2023-01-04T03:43:04.361Z,97.00
2023-01-04T03:45:55.810Z,97.10
2023-01-04T03:48:32.510Z,97.10
2023-01-04T03:51:10.350Z,97.10
2023-01-04T03:53:46.746Z,97.10
2023-01-04T03:58:52.137Z,97.10
2023-01-04T04:01:21.660Z,97.10
2023-01-04T04:04:23.179Z,97.00
2023-01-04T04:07:08.763Z,97.00
2023-01-04T04:09:38.917Z,97.00
2023-01-04T04:12:14.560Z,97.00
2023-01-04T04:14:44.284Z,97.00
2023-01-04T04:17:21.083Z,97.00
2023-01-04T04:19:51.670Z,97.00
2023-01-04T04:22:20.147Z,97.00
2023-01-04T04:24:48.184Z,97.00
2023-01-04T04:27:16.435Z,97.00
2023-01-04T04:29:48.724Z,97.00
2023-01-04T04:32:21.252Z,97.00
2023-01-04T04:34:49.705Z,97.00
2023-01-04T04:37:18.068Z,97.00
2023-01-04T04:39:46.220Z,97.00
2023-01-04T04:42:13.334Z,97.00
2023-01-04T04:45:01.571Z,97.00
2023-01-04T04:47:32.622Z,96.90
2023-01-04T04:50:00.638Z,97.00
2023-01-04T04:55:54.751Z,97.00
2023-01-04T04:58:29.734Z,97.00
2023-01-04T05:01:29.099Z,97.00
2023-01-04T05:04:00.777Z,97.00
2023-01-04T05:06:32.796Z,97.00
2023-01-04T05:09:19.966Z,97.00
2023-01-04T05:12:05.371Z,97.00
2023-01-04T05:14:40.150Z,97.00
2023-01-04T05:17:16.549Z,97.10
2023-01-04T05:19:47.181Z,97.00
2023-01-04T05:22:41.184Z,97.10
2023-01-04T05:29:49.762Z,97.20
2023-01-04T05:45:50.727Z,97.50
2023-01-04T05:49:09.032Z,97.40
2023-01-04T05:51:49.409Z,97.50
2023-01-04T06:05:37.865Z,97.60
2023-01-04T06:19:51.717Z,97.60
2023-01-04T06:22:23.490Z,97.60
2023-01-04T06:24:54.859Z,97.70
2023-01-04T06:27:47.075Z,97.70
2023-01-04T06:30:39.382Z,97.70
2023-01-04T06:33:42.621Z,97.70
2023-01-04T06:36:25.717Z,97.80
2023-01-04T06:39:44.123Z,97.80
2023-01-04T06:42:41.261Z,97.70
2023-01-04T06:45:25.279Z,97.70
2023-01-04T06:47:53.702Z,97.80
2023-01-04T06:53:43.961Z,97.70
2023-01-04T06:56:58.636Z,97.70
2023-01-04T06:59:26.717Z,97.80
2023-01-04T07:01:55.003Z,97.80
2023-01-04T07:04:29.176Z,97.80
2023-01-04T07:07:56.374Z,97.90
2023-01-04T07:10:42.864Z,97.70
2023-01-04T07:13:11.670Z,97.70
2023-01-04T07:36:34.589Z,98.30
2023-01-04T07:39:22.553Z,98.20
2023-01-04T07:41:55.102Z,98.30
2023-01-04T07:44:58.305Z,98.30
2023-01-04T07:47:51.438Z,98.30
2023-01-04T07:50:33.427Z,98.30
2023-01-04T07:53:14.505Z,98.30
2023-01-04T07:55:47.319Z,98.30
2023-01-04T07:58:16.947Z,98.30
2023-01-04T08:00:53.241Z,98.30
2023-01-04T08:03:38.556Z,98.30
2023-01-04T09:45:25.850Z,98.60
2023-01-04T09:48:06.724Z,98.70
2023-01-04T09:51:48.430Z,98.70
2023-01-04T09:56:05.321Z,98.70
2023-01-04T09:58:34.287Z,98.70
2023-01-04T10:01:43.333Z,98.70
2023-01-04T10:04:20.209Z,98.70
2023-01-04T10:07:41.949Z,98.70
2023-01-04T10:10:24.226Z,98.80
2023-01-04T10:13:30.060Z,98.80
2023-01-04T10:16:07.441Z,98.80
2023-01-04T10:19:52.272Z,98.80
2023-01-04T10:21:47.115Z,98.80
2023-01-04T10:52:06.292Z,98.80
2023-01-04T11:07:49.322Z,99.00
2023-01-04T11:29:01.526Z,98.80
2023-01-04T11:31:40.341Z,98.90
2023-01-04T11:34:13.873Z,98.90
2023-01-04T11:36:44.399Z,98.90
2023-01-04T11:39:21.323Z,99.00
2023-01-04T11:42:03.035Z,98.90
2023-01-04T11:44:32.770Z,98.90
2023-01-04T11:47:10.967Z,99.00
2023-01-04T11:49:43.342Z,99.00
2023-01-04T11:52:31.013Z,99.00
2023-01-04T11:55:21.388Z,99.20
2023-01-04T11:57:53.240Z,99.10
2023-01-04T12:00:30.885Z,99.00
2023-01-04T12:03:37.680Z,98.90
2023-01-04T12:06:50.968Z,99.10
2023-01-04T12:09:28.011Z,99.20
2023-01-04T12:12:04.804Z,99.00
2023-01-04T12:17:24.479Z,99.10
2023-01-04T12:20:19.228Z,99.30
2023-01-04T13:55:41.935Z,99.20
2023-01-04T13:59:21.225Z,99.10
2023-01-04T14:01:50.249Z,99.10
2023-01-04T14:04:56.339Z,99.20
2023-01-04T14:07:26.246Z,99.20
2023-01-04T14:10:00.735Z,99.30
2023-01-04T14:16:32.103Z,99.10
2023-01-04T14:19:22.489Z,99.30
2023-01-04T14:21:53.177Z,99.20
2023-01-04T14:28:22.664Z,98.90
2023-01-04T14:30:54.771Z,98.90
2023-01-04T14:34:12.023Z,99.20
2023-01-04T14:55:36.433Z,99.10
2023-01-04T14:58:04.535Z,99.00
2023-01-04T15:04:05.894Z,98.80
2023-01-04T15:06:42.486Z,99.10
2023-01-04T15:09:12.966Z,98.90
2023-01-04T15:11:46.840Z,98.70
2023-01-04T15:14:17.822Z,98.80
2023-01-04T15:16:48.599Z,99.00
2023-01-04T15:20:07.043Z,98.70
2023-01-04T15:22:44.976Z,98.80
2023-01-04T15:25:35.986Z,98.80
2023-01-04T15:39:29.393Z,99.00
2023-01-04T15:42:25.503Z,99.20
2023-01-04T15:56:23.896Z,98.90
2023-01-04T16:00:22.045Z,99.20
2023-01-04T16:10:54.801Z,99.20
2023-01-04T16:13:28.815Z,99.20
2023-01-04T16:16:04.961Z,99.50
2023-01-04T16:18:48.247Z,99.50
2023-01-04T16:25:11.224Z,99.50
2023-01-04T16:27:54.373Z,99.70
2023-01-04T16:30:32.924Z,99.60
2023-01-04T16:44:24.570Z,99.80
2023-01-04T16:50:52.173Z,99.80
2023-01-04T16:57:11.015Z,99.80
2023-01-04T17:03:32.571Z,99.80
2023-01-04T17:06:16.413Z,99.80
2023-01-04T17:27:58.685Z,99.70
2023-01-04T17:30:28.072Z,99.90
2023-01-04T17:32:56.415Z,99.80
2023-01-04T17:35:28.135Z,99.80
2023-01-04T17:37:57.239Z,99.60
2023-01-04T17:40:26.035Z,99.70
2023-01-04T17:42:55.787Z,99.80
2023-01-04T17:45:39.938Z,99.70
2023-01-04T17:48:38.180Z,99.70
2023-01-04T17:51:08.108Z,99.70
2023-01-04T17:53:42.034Z,99.60
2023-01-04T17:58:42.373Z,99.70
2023-01-04T18:01:14.913Z,99.90
2023-01-04T18:03:46.548Z,99.80
2023-01-04T18:06:25.250Z,99.70
2023-01-04T18:08:54.302Z,99.70
2023-01-04T18:11:27.454Z,99.90
2023-01-04T18:13:58.443Z,99.80
2023-01-04T18:16:32.409Z,99.50
2023-01-04T18:19:02.269Z,99.50
2023-01-04T18:21:32.834Z,99.50
2023-01-04T18:27:20.475Z,99.60
2023-01-04T18:29:58.134Z,99.60
2023-01-04T18:32:34.698Z,99.60
2023-01-04T18:35:07.609Z,99.60
2023-01-04T18:40:19.294Z,99.80
2023-01-04T18:43:00.388Z,99.90
2023-01-04T18:48:19.534Z,99.50
2023-01-04T18:50:49.976Z,99.60
2023-01-04T18:53:18.563Z,99.80
2023-01-04T18:55:46.948Z,99.70
2023-01-04T18:58:15.479Z,99.80
2023-01-04T19:00:46.683Z,99.80
2023-01-04T19:03:18.936Z,99.50
2023-01-04T19:05:47.447Z,99.50
2023-01-04T19:08:15.755Z,99.40
2023-01-04T19:10:44.349Z,99.60
2023-01-04T19:13:14.448Z,99.50
2023-01-04T20:00:59.667Z,99.60
2023-01-04T20:03:30.812Z,99.70
2023-01-04T20:06:03.449Z,99.60
2023-01-04T20:27:43.200Z,99.60
2023-01-04T20:32:55.426Z,99.40
2023-01-04T20:35:40.938Z,99.60
2023-01-04T20:44:32.323Z,99.50
2023-01-04T20:47:22.553Z,99.70
2023-01-04T21:03:56.482Z,99.90
2023-01-04T21:06:25.268Z,99.60
2023-01-04T21:08:55.272Z,99.50
2023-01-04T21:11:25.741Z,99.50
2023-01-04T21:13:57.665Z,99.40
2023-01-04T21:16:26.423Z,99.60
2023-01-04T21:18:54.828Z,99.80
2023-01-04T21:21:33.521Z,99.60
2023-01-04T21:24:02.228Z,99.60
2023-01-04T21:26:33.905Z,99.60
2023-01-04T21:29:03.703Z,99.80
2023-01-04T21:31:32.673Z,99.80
2023-01-04T21:34:01.578Z,99.50
2023-01-04T21:36:30.597Z,99.70
2023-01-04T21:38:59.973Z,99.70
2023-01-04T21:41:28.350Z,99.80
2023-01-04T21:44:00.538Z,99.70
2023-01-04T21:46:29.689Z,99.80
2023-01-04T21:49:01.986Z,99.70
2023-01-04T21:51:30.924Z,99.60
2023-01-04T21:53:59.218Z,99.60
2023-01-04T21:56:27.754Z,99.70
2023-01-04T21:58:59.729Z,99.60
2023-01-04T22:01:34.501Z,99.70
2023-01-04T22:04:04.623Z,99.70
2023-01-04T22:06:37.530Z,99.70
2023-01-04T22:09:07.181Z,99.60
2023-01-04T22:11:35.523Z,99.60
2023-01-04T22:14:05.288Z,99.80
2023-01-04T22:16:33.727Z,99.80
2023-01-04T22:19:02.268Z,99.80
2023-01-04T22:21:30.949Z,99.60
2023-01-04T22:23:59.149Z,99.60
2023-01-04T22:26:27.629Z,99.60
2023-01-04T22:28:56.993Z,99.60
2023-01-04T22:31:26.933Z,99.60
2023-01-04T22:33:55.262Z,99.60
2023-01-04T22:36:25.941Z,99.50
2023-01-04T22:38:55.522Z,99.50
2023-01-04T22:41:25.391Z,99.60
2023-01-04T22:43:57.614Z,99.50
2023-01-04T22:46:29.070Z,99.40
2023-01-04T22:48:58.032Z,99.50
2023-01-04T22:51:28.240Z,99.60
2023-01-04T22:53:58.129Z,99.70
2023-01-04T22:56:27.064Z,99.60
2023-01-04T22:58:57.121Z,99.60
2023-01-04T23:01:28.301Z,99.50
2023-01-04T23:03:58.247Z,99.60
2023-01-04T23:06:27.922Z,99.90
2023-01-04T23:08:57.963Z,99.60
2023-01-04T23:11:27.258Z,99.60
2023-01-04T23:13:55.896Z,99.60
2023-01-04T23:16:31.500Z,99.60
2023-01-04T23:19:02.881Z,99.70
2023-01-04T23:21:32.455Z,99.80
2023-01-04T23:24:01.309Z,99.80
2023-01-04T23:26:40.835Z,99.90
2023-01-04T23:29:10.867Z,99.80
2023-01-04T23:31:39.457Z,99.90
2023-01-04T23:34:19.146Z,99.80
2023-01-04T23:36:47.296Z,99.80
2023-01-04T23:39:17.089Z,99.90
2023-01-04T23:41:46.187Z,99.90
2023-01-04T23:44:20.235Z,99.90
2023-01-04T23:46:52.683Z,99.90
2023-01-04T23:49:23.476Z,99.90
2023-01-04T23:51:54.570Z,99.90
2023-01-04T23:54:23.759Z,99.90
2023-01-04T23:56:52.757Z,99.90
2023-01-04T23:59:21.603Z,99.90
